createdAt,value
2023-05-22T00:00:19.622Z,100954.72
2023-05-22T00:02:46.687Z,100949.59
2023-05-22T00:05:15.100Z,100921.59
2023-05-22T00:07:43.164Z,100963.63
2023-05-22T00:10:11.153Z,100956.81
2023-05-22T00:12:38.207Z,100948.44
2023-05-22T00:15:06.181Z,100932.44
2023-05-22T00:17:34.128Z,100948.44
2023-05-22T00:20:08.086Z,100925.97
2023-05-22T00:22:38.086Z,100939.28
2023-05-22T00:25:06.763Z,100934.31
2023-05-22T00:27:34.374Z,100938.25
2023-05-22T00:30:01.784Z,100917.44
2023-05-22T00:32:30.079Z,100915.59
2023-05-22T00:34:57.097Z,100929.25
2023-05-22T00:37:25.410Z,100926.16
2023-05-22T00:39:52.418Z,100929.75
2023-05-22T00:42:19.449Z,100927.88
2023-05-22T00:44:48.260Z,100902.28
2023-05-22T00:47:15.365Z,100926.69
2023-05-22T00:49:44.067Z,100917.81
2023-05-22T00:52:13.199Z,100897.81
2023-05-22T00:54:40.389Z,100914.56
2023-05-22T00:57:07.530Z,100905.31
2023-05-22T00:59:36.174Z,100905.16
2023-05-22T01:02:03.339Z,100925.34
2023-05-22T01:04:33.015Z,100908.56
2023-05-22T01:07:03.153Z,100925.50
2023-05-22T01:09:30.581Z,100927.88
2023-05-22T01:12:06.237Z,100929.28
2023-05-22T01:15:13.477Z,100940.56
2023-05-22T01:18:07.076Z,100955.47
2023-05-22T01:21:04.375Z,100959.56
2023-05-22T01:24:20.946Z,100968.81
2023-05-22T01:27:29.889Z,100974.44
2023-05-22T01:30:33.999Z,100972.22
2023-05-22T01:33:03.084Z,100962.13
2023-05-22T01:35:33.628Z,100978.53
2023-05-22T01:38:02.698Z,100972.75
2023-05-22T01:40:32.162Z,100974.97
2023-05-22T01:42:59.175Z,100967.78
2023-05-22T01:45:26.351Z,100968.66
2023-05-22T01:47:53.417Z,100972.22
2023-05-22T01:50:21.136Z,100975.28
2023-05-22T01:53:07.227Z,100976.31
2023-05-22T01:55:46.257Z,100964.34
2023-05-22T01:58:41.580Z,100965.75
2023-05-22T02:01:11.119Z,100960.97
2023-05-22T02:03:40.575Z,100948.13
2023-05-22T02:06:13.379Z,100956.66
2023-05-22T02:08:42.369Z,100953.78
2023-05-22T02:11:12.731Z,100953.44
2023-05-22T02:13:39.868Z,100949.34
2023-05-22T02:16:07.369Z,100954.81
2023-05-22T02:18:34.546Z,100924.94
2023-05-22T02:21:03.200Z,100939.25
2023-05-22T02:23:32.229Z,100909.53
2023-05-22T02:25:59.202Z,100948.66
2023-05-22T02:28:27.038Z,100933.09
2023-05-22T02:30:53.984Z,100938.56
2023-05-22T02:33:21.435Z,100922.81
2023-05-22T02:35:50.006Z,100927.25
2023-05-22T02:38:17.164Z,100922.31
2023-05-22T02:40:45.161Z,100936.69
2023-05-22T02:43:12.160Z,100933.75
2023-05-22T02:45:39.178Z,100923.16
2023-05-22T02:48:06.674Z,100930.47
2023-05-22T02:50:33.661Z,100922.25
2023-05-22T02:53:00.743Z,100917.78
2023-05-22T02:55:27.704Z,100914.38
2023-05-22T02:57:54.679Z,100921.91
2023-05-22T03:00:22.549Z,100915.09
2023-05-22T03:02:49.772Z,100912.88
2023-05-22T03:05:17.836Z,100909.50
2023-05-22T03:07:48.195Z,100904.88
2023-05-22T03:10:15.764Z,100879.97
2023-05-22T03:12:42.869Z,100875.84
2023-05-22T03:15:11.342Z,100865.25
2023-05-22T03:17:39.900Z,100885.22
2023-05-22T03:20:08.778Z,100866.28
2023-05-22T03:22:36.004Z,100889.31
2023-05-22T03:25:04.019Z,100876.00
2023-05-22T03:27:30.961Z,100891.00
2023-05-22T03:29:57.972Z,100883.16
2023-05-22T03:32:25.281Z,100885.03
2023-05-22T03:34:52.233Z,100862.31
2023-05-22T03:37:19.281Z,100883.00
2023-05-22T03:39:46.552Z,100879.56
2023-05-22T03:42:21.407Z,100886.44
2023-05-22T03:44:49.965Z,100886.75
2023-05-22T03:47:17.665Z,100878.56
2023-05-22T03:49:44.625Z,100868.84
2023-05-22T03:52:11.712Z,100875.81
2023-05-22T03:54:38.639Z,100886.44
2023-05-22T03:57:06.216Z,100857.53
2023-05-22T03:59:33.253Z,100876.53
2023-05-22T04:02:01.241Z,100876.84
2023-05-22T04:04:29.159Z,100870.88
2023-05-22T04:06:58.267Z,100886.06
2023-05-22T04:09:31.628Z,100863.16
2023-05-22T04:11:58.771Z,100858.72
2023-05-22T04:14:26.198Z,100875.31
2023-05-22T04:16:53.458Z,100875.81
2023-05-22T04:19:20.743Z,100842.88
2023-05-22T04:21:48.948Z,100864.22
2023-05-22T04:24:18.282Z,100866.97
2023-05-22T04:26:45.331Z,100871.56
2023-05-22T04:29:14.405Z,100867.13
2023-05-22T04:31:46.225Z,100850.56
2023-05-22T04:34:15.723Z,100863.56
2023-05-22T04:36:45.184Z,100859.78
2023-05-22T04:39:13.884Z,100873.59
2023-05-22T04:41:41.408Z,100864.56
2023-05-22T04:44:08.625Z,100834.59
2023-05-22T04:46:36.083Z,100866.56
2023-05-22T04:49:03.432Z,100869.81
2023-05-22T04:51:32.317Z,100835.81
2023-05-22T04:53:59.269Z,100867.09
2023-05-22T04:56:36.172Z,100865.19
2023-05-22T04:59:05.461Z,100864.56
2023-05-22T05:01:35.069Z,100855.84
2023-05-22T05:04:04.003Z,100844.03
2023-05-22T05:06:31.035Z,100867.44
2023-05-22T05:08:58.104Z,100865.41
2023-05-22T05:11:25.075Z,100869.31
2023-05-22T05:13:52.395Z,100858.91
2023-05-22T05:16:20.527Z,100864.69
2023-05-22T05:18:47.609Z,100866.41
2023-05-22T05:21:15.162Z,100856.50
2023-05-22T05:23:42.834Z,100845.25
2023-05-22T05:26:09.922Z,100855.66
2023-05-22T05:28:37.716Z,100877.31
2023-05-22T05:31:07.770Z,100845.34
2023-05-22T05:33:50.426Z,100864.16
2023-05-22T05:36:29.031Z,100877.00
2023-05-22T05:38:58.384Z,100869.81
2023-05-22T05:41:27.025Z,100867.59
2023-05-22T05:44:01.537Z,100860.41
2023-05-22T05:46:31.602Z,100864.56
2023-05-22T05:48:59.300Z,100862.31
2023-05-22T05:51:26.451Z,100860.41
2023-05-22T05:53:53.793Z,100866.22
2023-05-22T05:56:21.772Z,100870.31
2023-05-22T05:58:49.228Z,100896.63
2023-05-22T06:01:38.467Z,100886.56
2023-05-22T06:04:08.920Z,100876.34
2023-05-22T06:06:39.320Z,100895.28
2023-05-22T06:09:15.387Z,100899.59
2023-05-22T06:12:12.929Z,100887.81
2023-05-22T06:14:42.838Z,100897.53
2023-05-22T06:17:10.176Z,100882.19
2023-05-22T06:19:39.653Z,100867.97
2023-05-22T06:22:06.911Z,100891.75
2023-05-22T06:24:34.943Z,100890.22
2023-05-22T06:27:08.422Z,100877.38
2023-05-22T06:29:35.777Z,100880.50
2023-05-22T06:32:03.211Z,100886.47
2023-05-22T06:34:30.337Z,100876.72
2023-05-22T06:36:59.104Z,100880.50
2023-05-22T06:39:32.109Z,100877.56
2023-05-22T06:42:19.492Z,100883.53
2023-05-22T06:45:21.706Z,100890.75
2023-05-22T06:48:07.146Z,100892.09
2023-05-22T06:50:40.118Z,100887.19
2023-05-22T06:53:07.548Z,100887.84
2023-05-22T06:55:34.549Z,100888.19
2023-05-22T06:58:08.653Z,100890.91
2023-05-22T07:00:36.025Z,100893.13
2023-05-22T07:03:08.730Z,100886.97
2023-05-22T07:05:56.714Z,100891.94
2023-05-22T07:08:24.204Z,100868.03
2023-05-22T07:10:51.688Z,100877.25
2023-05-22T07:13:18.765Z,100873.53
2023-05-22T07:15:46.617Z,100878.09
2023-05-22T07:18:13.676Z,100871.13
2023-05-22T07:20:42.088Z,100875.88
2023-05-22T07:23:14.697Z,100879.81
2023-05-22T07:25:46.399Z,100878.44
2023-05-22T07:28:15.640Z,100881.81
2023-05-22T07:31:05.463Z,100882.50
2023-05-22T07:33:32.517Z,100875.16
2023-05-22T07:35:59.918Z,100875.16
2023-05-22T07:38:26.948Z,100884.38
2023-05-22T07:40:59.499Z,100879.94
2023-05-22T07:43:27.809Z,100873.25
2023-05-22T07:45:55.388Z,100882.66
2023-05-22T07:48:25.645Z,100872.75
2023-05-22T07:50:52.627Z,100871.72
2023-05-22T07:53:19.585Z,100866.41
2023-05-22T07:55:50.808Z,100879.88
2023-05-22T07:58:18.051Z,100878.13
2023-05-22T08:00:46.465Z,100890.31
2023-05-22T08:03:13.660Z,100885.13
2023-05-22T08:05:40.798Z,100884.09
2023-05-22T08:08:07.797Z,100883.63
2023-05-22T08:10:58.288Z,100886.66
2023-05-22T08:13:22.665Z,100891.94
2023-05-22T08:15:49.643Z,100886.13
2023-05-22T08:18:16.576Z,100888.84
2023-05-22T08:20:43.553Z,100890.69
2023-05-22T08:23:10.549Z,100889.47
2023-05-22T08:25:37.498Z,100869.97
2023-05-22T08:28:04.618Z,100882.88
2023-05-22T08:30:31.572Z,100876.72
2023-05-22T08:32:58.597Z,100888.31
2023-05-22T08:35:25.690Z,100860.94
2023-05-22T08:37:52.960Z,100892.38
2023-05-22T08:40:21.315Z,100864.16
2023-05-22T08:42:48.558Z,100894.50
2023-05-22T08:45:16.248Z,100886.44
2023-05-22T08:47:44.622Z,100887.94
2023-05-22T08:50:12.468Z,100879.66
2023-05-22T08:52:52.649Z,100878.44
2023-05-22T08:55:20.146Z,100868.84
2023-05-22T08:57:47.480Z,100875.00
2023-05-22T09:00:15.595Z,100875.56
2023-05-22T09:02:42.751Z,100872.09
2023-05-22T09:05:10.045Z,100864.56
2023-05-22T09:07:38.057Z,100867.88
2023-05-22T09:10:07.198Z,100866.91
2023-05-22T09:12:34.708Z,100858.09
2023-05-22T09:15:12.232Z,100859.66
2023-05-22T09:17:40.916Z,100864.59
2023-05-22T09:20:13.212Z,100851.50
2023-05-22T09:22:40.219Z,100870.66
2023-05-22T09:25:07.651Z,100870.97
2023-05-22T09:27:34.865Z,100883.41
2023-05-22T09:30:01.957Z,100867.66
2023-05-22T09:32:32.047Z,100867.59
2023-05-22T09:35:05.713Z,100867.97
2023-05-22T09:37:37.098Z,100858.16
2023-05-22T09:40:11.041Z,100876.22
2023-05-22T09:42:38.197Z,100865.81
2023-05-22T09:45:07.455Z,100872.59
2023-05-22T09:47:35.823Z,100867.91
2023-05-22T09:50:07.230Z,100867.81
2023-05-22T09:52:36.245Z,100848.38
2023-05-22T09:55:06.954Z,100864.28
2023-05-22T09:57:44.562Z,100873.06
2023-05-22T10:00:19.342Z,100853.84
2023-05-22T10:02:50.227Z,100870.16
2023-05-22T10:05:22.934Z,100863.56
2023-05-22T10:07:55.762Z,100847.06
2023-05-22T10:10:25.212Z,100857.31
2023-05-22T10:12:57.957Z,100851.00
2023-05-22T10:15:25.515Z,100861.19
2023-05-22T10:17:53.063Z,100863.72
2023-05-22T10:20:20.406Z,100862.28
2023-05-22T10:22:51.122Z,100860.47
2023-05-22T10:25:18.431Z,100844.97
2023-05-22T10:27:45.995Z,100856.00
2023-05-22T10:30:41.235Z,100851.34
2023-05-22T10:33:40.478Z,100852.28
2023-05-22T10:36:19.767Z,100837.44
2023-05-22T10:39:16.502Z,100841.91
2023-05-22T10:41:43.495Z,100843.34
2023-05-22T10:44:10.624Z,100842.47
2023-05-22T10:46:37.580Z,100836.03
2023-05-22T10:49:04.536Z,100829.78
2023-05-22T10:51:34.379Z,100833.88
2023-05-22T10:54:02.534Z,100812.38
2023-05-22T10:56:36.872Z,100833.06
2023-05-22T10:59:06.042Z,100826.56
2023-05-22T11:01:38.118Z,100807.03
2023-05-22T11:04:25.730Z,100824.66
2023-05-22T11:07:06.851Z,100821.72
2023-05-22T11:09:41.429Z,100814.88
2023-05-22T11:12:17.922Z,100808.47
2023-05-22T11:15:07.565Z,100811.19
2023-05-22T11:17:42.454Z,100811.25
2023-05-22T11:20:18.655Z,100796.28
2023-05-22T11:22:59.383Z,100805.91
2023-05-22T11:25:28.156Z,100776.41
2023-05-22T11:27:56.446Z,100799.47
2023-05-22T11:30:30.953Z,100783.94
2023-05-22T11:32:59.520Z,100793.69
2023-05-22T11:35:27.649Z,100786.63
2023-05-22T11:37:56.220Z,100786.69
2023-05-22T11:40:29.619Z,100786.78
2023-05-22T11:42:56.944Z,100789.84
2023-05-22T11:45:24.051Z,100789.41
2023-05-22T11:47:51.329Z,100783.19
2023-05-22T11:50:29.219Z,100786.69
2023-05-22T11:53:05.358Z,100779.19
2023-05-22T11:55:33.806Z,100785.75
2023-05-22T11:58:02.717Z,100777.94
2023-05-22T12:00:31.228Z,100775.97
2023-05-22T12:02:59.052Z,100778.88
2023-05-22T12:05:26.228Z,100773.91
2023-05-22T12:07:53.336Z,100761.19
2023-05-22T12:10:20.514Z,100767.47
2023-05-22T12:12:48.244Z,100758.59
2023-05-22T12:15:20.275Z,100759.72
2023-05-22T12:17:47.321Z,100764.81
2023-05-22T12:20:14.568Z,100745.94
2023-05-22T12:22:43.393Z,100763.78
2023-05-22T12:25:17.596Z,100753.22
2023-05-22T12:27:45.747Z,100760.50
2023-05-22T12:30:14.326Z,100762.28
2023-05-22T12:32:41.796Z,100754.00
2023-05-22T12:35:16.933Z,100762.78
2023-05-22T12:37:51.703Z,100759.16
2023-05-22T12:40:18.946Z,100741.50
2023-05-22T12:42:46.000Z,100749.91
2023-05-22T12:45:13.840Z,100754.47
2023-05-22T12:47:41.248Z,100758.16
2023-05-22T12:50:08.993Z,100750.00
2023-05-22T12:52:36.192Z,100752.25
2023-05-22T12:55:03.337Z,100748.88
2023-05-22T12:57:30.386Z,100754.47
2023-05-22T12:59:57.421Z,100746.88
2023-05-22T13:02:24.511Z,100748.75
2023-05-22T13:04:51.563Z,100746.28
2023-05-22T13:07:18.549Z,100748.28
2023-05-22T13:09:45.563Z,100747.84
2023-05-22T13:12:12.653Z,100736.84
2023-05-22T13:14:40.526Z,100738.19
2023-05-22T13:17:07.971Z,100737.38
2023-05-22T13:19:35.168Z,100744.66
2023-05-22T13:22:02.217Z,100749.28
2023-05-22T13:24:29.685Z,100751.47
2023-05-22T13:26:56.595Z,100739.44
2023-05-22T13:29:23.534Z,100732.38
2023-05-22T13:31:51.307Z,100725.59
2023-05-22T13:34:18.537Z,100735.56
2023-05-22T13:36:45.732Z,100739.91
2023-05-22T13:39:13.005Z,100735.44
2023-05-22T13:41:40.158Z,100740.31
2023-05-22T13:44:07.286Z,100730.84
2023-05-22T13:46:34.356Z,100701.91
2023-05-22T13:49:01.554Z,100721.91
2023-05-22T13:51:29.017Z,100713.44
2023-05-22T13:53:56.364Z,100692.13
2023-05-22T13:56:24.021Z,100706.13
2023-05-22T13:58:50.981Z,100702.13
2023-05-22T14:01:18.041Z,100699.44
2023-05-22T14:03:45.041Z,100702.72
2023-05-22T14:06:12.150Z,100684.50
2023-05-22T14:08:39.459Z,100694.88
2023-05-22T14:11:06.926Z,100697.66
2023-05-22T14:13:35.329Z,100671.44
2023-05-22T14:16:02.597Z,100685.31
2023-05-22T14:18:31.215Z,100691.75
2023-05-22T14:20:58.271Z,100689.66
2023-05-22T14:23:25.522Z,100690.41
2023-05-22T14:25:52.439Z,100700.19
2023-05-22T14:28:19.373Z,100693.66
2023-05-22T14:30:46.416Z,100673.25
2023-05-22T14:33:13.533Z,100684.22
2023-05-22T14:35:40.996Z,100682.69
2023-05-22T14:38:08.269Z,100683.28
2023-05-22T14:40:35.260Z,100692.59
2023-05-22T14:43:03.764Z,100684.69
2023-05-22T14:45:30.778Z,100689.88
2023-05-22T14:48:04.699Z,100675.28
2023-05-22T14:50:31.728Z,100686.84
2023-05-22T14:52:58.740Z,100684.06
2023-05-22T14:55:28.046Z,100681.28
2023-05-22T14:57:55.551Z,100685.06
2023-05-22T15:00:22.503Z,100674.69
2023-05-22T15:02:49.560Z,100675.78
2023-05-22T15:05:16.580Z,100682.19
2023-05-22T15:07:45.614Z,100684.72
2023-05-22T15:10:13.839Z,100676.88
2023-05-22T15:12:40.885Z,100680.84
2023-05-22T15:15:09.313Z,100668.03
2023-05-22T15:17:36.361Z,100667.34
2023-05-22T15:20:05.390Z,100658.78
2023-05-22T15:22:32.310Z,100661.75
2023-05-22T15:25:08.303Z,100652.97
2023-05-22T15:27:36.031Z,100636.78
2023-05-22T15:30:04.667Z,100663.00
2023-05-22T15:32:34.673Z,100667.31
2023-05-22T15:35:01.721Z,100656.94
2023-05-22T15:37:34.066Z,100677.66
2023-05-22T15:40:03.634Z,100668.00
2023-05-22T15:42:31.062Z,100674.69
2023-05-22T15:44:59.654Z,100676.84
2023-05-22T15:47:26.888Z,100678.06
2023-05-22T15:49:54.398Z,100666.84
2023-05-22T15:52:23.373Z,100664.53
2023-05-22T15:54:50.407Z,100678.63
2023-05-22T15:57:17.660Z,100671.66
2023-05-22T15:59:47.062Z,100680.41
2023-05-22T16:02:14.392Z,100674.69
2023-05-22T16:04:41.435Z,100676.94
2023-05-22T16:07:08.389Z,100668.34
2023-05-22T16:09:36.090Z,100661.69
2023-05-22T16:12:03.876Z,100659.84
2023-05-22T16:14:31.779Z,100669.66
2023-05-22T16:16:58.798Z,100668.22
2023-05-22T16:19:29.015Z,100662.56
2023-05-22T16:21:56.263Z,100662.38
2023-05-22T16:24:23.845Z,100676.78
2023-05-22T16:26:50.883Z,100681.78
2023-05-22T16:29:21.038Z,100671.19
2023-05-22T16:31:48.170Z,100690.91
2023-05-22T16:34:15.355Z,100702.09
2023-05-22T16:36:42.364Z,100709.25
2023-05-22T16:39:09.326Z,100712.16
2023-05-22T16:41:37.717Z,100704.28
2023-05-22T16:44:04.805Z,100689.56
2023-05-22T16:46:31.884Z,100673.06
2023-05-22T16:48:58.857Z,100707.72
2023-05-22T16:51:26.019Z,100722.75
2023-05-22T16:53:52.959Z,100715.03
2023-05-22T16:56:20.761Z,100708.22
2023-05-22T16:58:47.798Z,100705.78
2023-05-22T17:01:14.879Z,100714.53
2023-05-22T17:03:42.109Z,100711.25
2023-05-22T17:06:09.103Z,100723.03
2023-05-22T17:08:43.352Z,100732.38
2023-05-22T17:11:10.297Z,100765.53
2023-05-22T17:13:37.308Z,100785.91
2023-05-22T17:16:04.642Z,100805.53
2023-05-22T17:18:31.900Z,100830.53
2023-05-22T17:21:00.286Z,100833.59
2023-05-22T17:23:27.245Z,100828.56
2023-05-22T17:25:55.161Z,100803.84
2023-05-22T17:28:22.069Z,100818.91
2023-05-22T17:30:49.113Z,100818.16
2023-05-22T17:33:16.130Z,100833.19
2023-05-22T17:35:43.255Z,100817.03
2023-05-22T17:38:10.341Z,100788.25
2023-05-22T17:40:45.016Z,100779.94
2023-05-22T17:43:13.724Z,100801.38
2023-05-22T17:45:41.537Z,100802.84
2023-05-22T17:48:08.868Z,100807.16
2023-05-22T17:50:35.978Z,100803.63
2023-05-22T17:53:03.192Z,100843.59
2023-05-22T17:55:30.226Z,100847.00
2023-05-22T17:57:57.298Z,100835.59
2023-05-22T18:00:24.348Z,100839.66
2023-05-22T18:02:51.580Z,100845.63
2023-05-22T18:05:18.651Z,100859.28
2023-05-22T18:07:45.666Z,100881.31
2023-05-22T18:10:12.580Z,100880.81
2023-05-22T18:12:39.597Z,100877.91
2023-05-22T18:15:09.525Z,100880.66
2023-05-22T18:17:36.618Z,100880.81
2023-05-22T18:20:06.814Z,100869.19
2023-05-22T18:22:34.991Z,100881.84
2023-05-22T18:25:02.409Z,100885.44
2023-05-22T18:27:29.364Z,100881.28
2023-05-22T18:29:56.371Z,100886.22
2023-05-22T18:32:23.752Z,100882.66
2023-05-22T18:34:51.982Z,100874.13
2023-05-22T18:37:22.702Z,100853.81
2023-05-22T18:39:49.706Z,100848.56
2023-05-22T18:42:17.901Z,100841.75
2023-05-22T18:44:46.288Z,100834.38
2023-05-22T18:47:15.178Z,100846.00
2023-05-22T18:49:42.174Z,100848.22
2023-05-22T18:52:09.325Z,100856.03
2023-05-22T18:54:36.285Z,100850.47
2023-05-22T18:57:03.318Z,100847.72
2023-05-22T18:59:30.413Z,100855.25
2023-05-22T19:01:57.408Z,100856.91
2023-05-22T19:04:25.753Z,100862.03
2023-05-22T19:06:53.824Z,100857.75
2023-05-22T19:09:20.829Z,100850.94
2023-05-22T19:11:47.796Z,100852.16
2023-05-22T19:14:14.772Z,100865.25
2023-05-22T19:16:43.767Z,100862.56
2023-05-22T19:19:12.068Z,100863.06
2023-05-22T19:21:39.104Z,100869.06
2023-05-22T19:24:06.935Z,100867.66
2023-05-22T19:26:34.018Z,100836.09
2023-05-22T19:29:01.022Z,100871.28
2023-05-22T19:31:31.735Z,100844.75
2023-05-22T19:33:58.749Z,100866.00
2023-05-22T19:36:25.946Z,100870.63
2023-05-22T19:38:53.776Z,100855.78
2023-05-22T19:41:22.802Z,100874.91
2023-05-22T19:43:51.348Z,100856.81
2023-05-22T19:46:18.329Z,100867.06
2023-05-22T19:48:45.344Z,100860.97
2023-05-22T19:51:12.315Z,100865.97
2023-05-22T19:53:39.260Z,100863.72
2023-05-22T19:56:06.609Z,100866.97
2023-05-22T19:58:33.620Z,100867.16
2023-05-22T20:01:00.716Z,100861.00
2023-05-22T20:03:27.733Z,100860.16
2023-05-22T20:05:54.825Z,100864.94
2023-05-22T20:08:22.447Z,100855.53
2023-05-22T20:10:49.753Z,100868.13
2023-05-22T20:13:16.785Z,100862.50
2023-05-22T20:15:47.548Z,100859.59
2023-05-22T20:18:14.647Z,100864.47
2023-05-22T20:20:41.689Z,100854.03
2023-05-22T20:23:08.775Z,100854.38
2023-05-22T20:25:36.115Z,100854.84
2023-05-22T20:28:04.774Z,100862.00
2023-05-22T20:30:31.877Z,100859.44
2023-05-22T20:32:58.868Z,100844.53
2023-05-22T20:35:26.466Z,100865.50
2023-05-22T20:37:53.446Z,100867.03
2023-05-22T20:40:20.473Z,100861.91
2023-05-22T20:42:47.774Z,100867.03
2023-05-22T20:45:15.406Z,100870.56
2023-05-22T20:47:43.539Z,100859.34
2023-05-22T20:50:11.417Z,100863.28
2023-05-22T20:52:38.486Z,100860.75
2023-05-22T20:55:06.833Z,100872.63
2023-05-22T20:57:34.854Z,100873.78
2023-05-22T21:00:08.782Z,100880.91
2023-05-22T21:02:36.091Z,100881.06
2023-05-22T21:05:03.141Z,100879.34
2023-05-22T21:07:30.094Z,100886.78
2023-05-22T21:09:57.131Z,100883.34
2023-05-22T21:12:24.061Z,100880.78
2023-05-22T21:14:51.347Z,100881.97
2023-05-22T21:17:18.291Z,100880.28
2023-05-22T21:19:46.138Z,100882.03
2023-05-22T21:22:13.083Z,100876.22
2023-05-22T21:24:40.162Z,100878.59
2023-05-22T21:27:07.105Z,100880.06
2023-05-22T21:29:34.045Z,100885.81
2023-05-22T21:32:00.984Z,100894.63
2023-05-22T21:34:27.904Z,100885.75
2023-05-22T21:36:54.920Z,100895.03
2023-05-22T21:39:21.861Z,100899.25
2023-05-22T21:41:49.945Z,100904.31
2023-05-22T21:44:17.139Z,100896.91
2023-05-22T21:46:44.154Z,100901.81
2023-05-22T21:49:11.114Z,100897.72
2023-05-22T21:51:38.093Z,100896.75
2023-05-22T21:54:05.055Z,100912.28
2023-05-22T21:56:32.129Z,100914.78
2023-05-22T21:58:59.634Z,100899.25
2023-05-22T22:01:26.869Z,100910.16
2023-05-22T22:03:54.171Z,100915.41
2023-05-22T22:06:21.135Z,100924.69
2023-05-22T22:08:48.212Z,100924.13
2023-05-22T22:11:15.123Z,100924.75
2023-05-22T22:13:42.078Z,100935.75
2023-05-22T22:16:09.108Z,100923.66
2023-05-22T22:18:36.942Z,100928.56
2023-05-22T22:21:04.569Z,100910.34
2023-05-22T22:23:31.539Z,100932.63
2023-05-22T22:25:58.498Z,100929.34
2023-05-22T22:28:25.656Z,100927.47
2023-05-22T22:30:54.935Z,100932.19
2023-05-22T22:33:22.819Z,100933.56
2023-05-22T22:35:50.003Z,100931.00
2023-05-22T22:38:17.151Z,100943.22
2023-05-22T22:40:44.154Z,100940.09
2023-05-22T22:43:11.069Z,100936.66
2023-05-22T22:45:39.843Z,100945.97
2023-05-22T22:48:07.224Z,100947.13
2023-05-22T22:50:34.273Z,100949.81
2023-05-22T22:53:01.299Z,100947.38
2023-05-22T22:55:28.796Z,100955.81
2023-05-22T22:57:55.849Z,100955.22
2023-05-22T23:00:23.638Z,100947.03
2023-05-22T23:02:50.742Z,100948.66
2023-05-22T23:05:20.324Z,100949.09
2023-05-22T23:07:48.448Z,100958.34
2023-05-22T23:10:15.889Z,100943.06
2023-05-22T23:12:42.965Z,100969.69
2023-05-22T23:15:11.282Z,100960.09
2023-05-22T23:17:38.520Z,100964.13
2023-05-22T23:20:06.296Z,100960.38
2023-05-22T23:22:33.249Z,100958.25
2023-05-22T23:25:00.370Z,100947.28
2023-05-22T23:27:27.476Z,100950.63
2023-05-22T23:29:54.419Z,100948.50
2023-05-22T23:32:21.835Z,100947.94
2023-05-22T23:34:48.770Z,100935.91
2023-05-22T23:37:16.022Z,100931.91
2023-05-22T23:39:43.002Z,100934.19
2023-05-22T23:42:10.934Z,100933.56
2023-05-22T23:44:38.223Z,100928.75
2023-05-22T23:47:06.508Z,100933.00
2023-05-22T23:49:33.876Z,100921.75
2023-05-22T23:52:01.101Z,100910.22
2023-05-22T23:54:28.087Z,100930.06
2023-05-22T23:56:55.078Z,100926.22
2023-05-22T23:59:22.039Z,100925.34
